Time;durP1;ratioP1;P1;durP2;ratioP2;P2;SDS_P1;SDS_P2;PMS_P1;PMS_P2;Temp;Humidity;BMP_temperature;BMP_pressure;BME280_temperature;BME280_humidity;BME280_pressure;Samples;Min_cycle;Max_cycle;Signal;HPM_P1;HPM_P2
2022/12/16 00:01:21;;;;;;;34.55;21.95;;;0.50;99.90;;;;;;5054126;28;20052;-70
2022/12/16 00:03:56;;;;;;;28.88;19.67;;;0.50;99.90;;;;;;5053791;28;20056;-70
2022/12/16 00:06:24;;;;;;;29.98;19.80;;;0.40;99.90;;;;;;5050266;28;20386;-70
2022/12/16 00:08:49;;;;;;;29.73;20.55;;;0.50;99.90;;;;;;5065097;28;20045;-70
2022/12/16 00:11:15;;;;;;;27.98;19.35;;;0.50;99.90;;;;;;5055285;28;20045;-70
2022/12/16 00:13:40;;;;;;;30.90;20.55;;;0.50;99.90;;;;;;5037945;28;20405;-70
2022/12/16 00:16:09;;;;;;;27.67;19.70;;;0.60;99.90;;;;;;5055648;28;20106;-70
2022/12/16 00:18:34;;;;;;;28.13;19.60;;;0.60;99.90;;;;;;5055604;28;20084;-70
2022/12/16 00:21:00;;;;;;;28.45;19.88;;;0.50;99.90;;;;;;5042005;28;20126;-70
2022/12/16 00:23:27;;;;;;;27.83;20.17;;;0.60;99.90;;;;;;5055471;28;20505;-70
2022/12/16 00:25:53;;;;;;;28.58;19.73;;;0.50;99.90;;;;;;5063203;28;20396;-70
2022/12/16 00:28:21;;;;;;;27.88;19.85;;;0.50;99.90;;;;;;5075560;28;20037;-70
2022/12/16 00:30:49;;;;;;;29.25;19.98;;;0.50;99.90;;;;;;5075755;28;20036;-70
2022/12/16 00:33:15;;;;;;;28.83;20.38;;;0.50;99.90;;;;;;5054498;28;20048;-70
2022/12/16 00:35:41;;;;;;;29.05;19.70;;;0.50;99.90;;;;;;5061277;28;20550;-70
2022/12/16 00:38:07;;;;;;;28.80;20.40;;;0.50;99.90;;;;;;5075387;28;20481;-70
2022/12/16 00:40:32;;;;;;;29.10;19.15;;;0.40;99.90;;;;;;5058807;28;20036;-70
2022/12/16 00:42:58;;;;;;;28.15;19.65;;;0.40;99.90;;;;;;5075240;28;20511;-70
2022/12/16 00:45:23;;;;;;;25.63;18.52;;;0.30;99.90;;;;;;5057632;28;20036;-70
2022/12/16 00:47:49;;;;;;;24.45;17.90;;;0.30;99.90;;;;;;5058537;28;20060;-70
2022/12/16 00:50:16;;;;;;;25.58;18.52;;;0.30;99.90;;;;;;5075102;28;20525;-70
2022/12/16 00:52:41;;;;;;;28.77;19.95;;;0.30;99.90;;;;;;5073688;28;20037;-70
2022/12/16 00:55:07;;;;;;;26.77;18.05;;;0.30;99.90;;;;;;5075313;28;20511;-70
2022/12/16 00:57:33;;;;;;;26.63;18.88;;;0.30;99.90;;;;;;5058354;28;20051;-70
2022/12/16 00:59:59;;;;;;;25.83;17.83;;;0.30;99.90;;;;;;5055757;28;20028;-70
2022/12/16 01:02:24;;;;;;;25.92;18.90;;;0.30;99.90;;;;;;5075170;28;20071;-70
2022/12/16 01:04:50;;;;;;;30.23;19.90;;;0.30;99.90;;;;;;5055304;28;20048;-70
2022/12/16 01:07:15;;;;;;;25.92;19.05;;;0.30;99.90;;;;;;5074923;28;20117;-70
2022/12/16 01:09:41;;;;;;;27.05;18.70;;;0.30;99.90;;;;;;5074996;28;20036;-70
2022/12/16 01:12:07;;;;;;;29.80;19.13;;;0.40;99.90;;;;;;5058101;28;20528;-70
2022/12/16 01:14:32;;;;;;;28.80;19.50;;;0.30;99.90;;;;;;5074961;28;20040;-70
2022/12/16 01:16:58;;;;;;;27.38;18.65;;;0.30;99.90;;;;;;5055540;28;20052;-70
2022/12/16 01:19:24;;;;;;;27.33;19.60;;;0.30;99.90;;;;;;5053869;28;20382;-70
2022/12/16 01:21:49;;;;;;;25.38;17.92;;;0.20;99.90;;;;;;5054512;28;20553;-70
2022/12/16 01:24:15;;;;;;;29.20;19.30;;;0.20;99.90;;;;;;5067153;28;20056;-70
2022/12/16 01:26:40;;;;;;;29.50;19.35;;;0.20;99.90;;;;;;5057900;28;20028;-70
2022/12/16 01:29:06;;;;;;;27.33;18.30;;;0.20;99.90;;;;;;5057985;28;20040;-70
2022/12/16 01:31:31;;;;;;;28.52;19.75;;;0.20;99.90;;;;;;5056931;28;20036;-70
2022/12/16 01:33:57;;;;;;;28.27;19.00;;;0.20;99.90;;;;;;5053874;28;20530;-70
2022/12/16 01:36:23;;;;;;;28.13;19.33;;;0.20;99.90;;;;;;5053762;28;20086;-70
2022/12/16 01:38:49;;;;;;;27.67;18.88;;;0.20;99.90;;;;;;5057545;28;20071;-70
2022/12/16 01:41:16;;;;;;;26.25;18.45;;;0.20;99.90;;;;;;5056581;28;20071;-70
2022/12/16 01:43:43;;;;;;;25.02;18.40;;;0.20;99.90;;;;;;5056432;28;20033;-70
2022/12/16 01:46:18;;;;;;;26.98;18.00;;;0.20;99.90;;;;;;5055890;28;20765;-70
2022/12/16 01:49:05;;;;;;;24.38;18.58;;;0.20;99.90;;;;;;5074316;28;20040;-70
2022/12/16 01:51:35;;;;;;;23.85;18.33;;;0.20;99.90;;;;;;5057580;28;20040;-70
2022/12/16 01:54:23;;;;;;;28.83;19.58;;;0.20;99.90;;;;;;5073941;28;20072;-70
2022/12/16 01:56:53;;;;;;;25.67;18.20;;;0.20;99.90;;;;;;5072599;28;20072;-70
2022/12/16 01:59:19;;;;;;;24.02;17.75;;;0.30;99.90;;;;;;5073948;28;20037;-70
2022/12/16 02:01:45;;;;;;;27.88;18.50;;;0.30;99.90;;;;;;5072684;28;20127;-70
2022/12/16 02:04:10;;;;;;;27.30;18.73;;;0.30;99.90;;;;;;5033675;28;20145;-70
2022/12/16 02:06:37;;;;;;;27.48;18.75;;;0.30;99.90;;;;;;5050634;28;20060;-70
2022/12/16 02:09:07;;;;;;;28.52;19.45;;;0.30;99.90;;;;;;5053188;28;20128;-70
2022/12/16 02:11:35;;;;;;;29.90;19.48;;;0.30;99.90;;;;;;5048879;28;20033;-70
2022/12/16 02:14:11;;;;;;;26.85;18.90;;;0.30;99.90;;;;;;5073598;28;20051;-70
2022/12/16 02:16:49;;;;;;;25.13;18.25;;;0.40;99.90;;;;;;5073610;28;20036;-70
2022/12/16 02:19:33;;;;;;;27.33;18.70;;;0.30;99.90;;;;;;5073366;28;20048;-70
2022/12/16 02:22:12;;;;;;;29.48;18.83;;;0.30;99.90;;;;;;5055899;28;20445;-70
2022/12/16 02:25:09;;;;;;;28.90;19.30;;;0.30;99.90;;;;;;5072107;28;20083;-70
2022/12/16 02:28:01;;;;;;;27.67;18.45;;;0.30;99.90;;;;;;5069986;28;20187;-70
2022/12/16 02:30:58;;;;;;;27.05;18.25;;;0.30;99.90;;;;;;5056093;28;20485;-70
2022/12/16 02:33:47;;;;;;;28.20;18.52;;;0.30;99.90;;;;;;5056992;28;20044;-70
2022/12/16 02:36:48;;;;;;;24.15;17.08;;;0.20;99.90;;;;;;5072437;28;20048;-70
2022/12/16 02:39:21;;;;;;;25.40;17.13;;;0.30;99.90;;;;;;5040169;28;20408;-70
2022/12/16 02:42:01;;;;;;;25.85;18.33;;;0.20;99.90;;;;;;5056489;28;20041;-70
2022/12/16 02:44:40;;;;;;;27.00;18.40;;;0.20;99.90;;;;;;5056342;28;20036;-70
2022/12/16 02:47:06;;;;;;;26.73;18.33;;;0.20;99.90;;;;;;5073105;28;20037;-70
2022/12/16 02:49:31;;;;;;;25.90;17.55;;;0.20;99.90;;;;;;5056171;28;20038;-70
2022/12/16 02:51:59;;;;;;;24.33;16.42;;;0.20;99.90;;;;;;5071827;28;20435;-70
2022/12/16 02:54:26;;;;;;;30.85;17.90;;;0.20;99.90;;;;;;5071327;28;20041;-70
2022/12/16 02:57:24;;;;;;;26.60;18.50;;;0.30;99.90;;;;;;5054038;28;20041;-70
2022/12/16 03:00:13;;;;;;;25.90;18.05;;;0.30;99.90;;;;;;5071225;28;20399;-70
2022/12/16 03:02:47;;;;;;;24.27;17.63;;;0.30;99.90;;;;;;5054941;28;20044;-70
2022/12/16 03:05:30;;;;;;;22.83;16.95;;;0.20;99.90;;;;;;5063562;28;20179;-70
2022/12/16 03:07:59;;;;;;;23.98;16.83;;;0.20;99.90;;;;;;5049044;28;20037;-70
2022/12/16 03:10:31;;;;;;;26.80;16.42;;;0.30;99.90;;;;;;5044640;28;20040;-70
2022/12/16 03:12:58;;;;;;;;;;;0.30;99.90;;;;;;5065193;28;20047;-70
2022/12/16 03:15:27;;;;;;;22.67;14.45;;;0.30;99.90;;;;;;5047790;28;20395;-70
2022/12/16 03:17:54;;;;;;;24.02;16.52;;;0.30;99.90;;;;;;5035173;28;20041;-70
2022/12/16 03:20:33;;;;;;;22.88;15.93;;;0.30;99.90;;;;;;5039365;28;20048;-70
2022/12/16 03:23:02;;;;;;;22.02;15.25;;;0.30;99.90;;;;;;5071090;28;20043;-70
2022/12/16 03:25:30;;;;;;;21.80;15.02;;;0.30;99.90;;;;;;5055649;28;20055;-70
2022/12/16 03:28:06;;;;;;;22.70;14.45;;;0.30;99.90;;;;;;5055813;28;20044;-70
2022/12/16 03:30:37;;;;;;;20.85;13.85;;;0.30;99.90;;;;;;5053060;28;20041;-70
2022/12/16 03:33:20;;;;;;;18.73;11.75;;;0.40;99.90;;;;;;5071177;28;20044;-70
2022/12/16 03:35:53;;;;;;;18.20;12.35;;;0.40;99.90;;;;;;5067734;28;20131;-70
2022/12/16 03:38:20;;;;;;;16.30;11.27;;;0.40;99.90;;;;;;5055253;28;20044;-70
2022/12/16 03:40:47;;;;;;;16.20;10.70;;;0.40;99.90;;;;;;5060321;28;20488;-70
2022/12/16 03:43:14;;;;;;;18.60;10.57;;;0.40;99.90;;;;;;5071399;28;20036;-70
2022/12/16 03:45:42;;;;;;;14.77;9.80;;;0.50;99.90;;;;;;5053211;28;20115;-70
2022/12/16 03:48:10;;;;;;;13.70;8.93;;;0.50;99.90;;;;;;5071190;28;20560;-70
2022/12/16 03:50:37;;;;;;;12.45;7.88;;;0.50;99.90;;;;;;5055298;28;20040;-70
2022/12/16 03:53:04;;;;;;;11.43;6.45;;;0.50;99.90;;;;;;5055571;28;20400;-70
2022/12/16 03:55:29;;;;;;;11.82;7.53;;;0.50;99.90;;;;;;5054211;28;20036;-70
2022/12/16 03:57:56;;;;;;;9.50;6.28;;;0.60;99.90;;;;;;5071785;28;20060;-70
2022/12/16 04:00:22;;;;;;;9.43;6.60;;;0.60;99.90;;;;;;5052885;28;20140;-70
2022/12/16 04:02:48;;;;;;;10.77;5.68;;;0.60;99.90;;;;;;5055079;28;20045;-70
2022/12/16 04:05:14;;;;;;;10.35;5.53;;;0.60;99.90;;;;;;5071654;28;20079;-70
2022/12/16 04:07:40;;;;;;;10.05;5.32;;;0.60;99.90;;;;;;5055172;28;20045;-70
2022/12/16 04:10:07;;;;;;;8.98;5.05;;;0.60;99.90;;;;;;5070721;28;20119;-70
2022/12/16 04:26:20;;;;;;;11.25;5.60;;;0.70;99.90;;;;;;5051424;28;20041;-70
2022/12/16 04:28:46;;;;;;;10.75;5.90;;;0.70;99.90;;;;;;5048689;28;20115;-70
2022/12/16 04:31:12;;;;;;;11.30;6.55;;;0.70;99.90;;;;;;5071737;28;20045;-70
